Terminal Aerodrome Forecast
Issued by NWS Charleston, WV

Home | Current Version | Previous Version | Text Only | Print | Product List | Glossary On
Versions: 1 2 3 4 5 6 7 8 9 10 11 12 13 14 15 16 17 18 19 20 21 22 23 24
000
FTUS41 KRLX 301453 AAA
TAFHTS
TAF AMD
KHTS 301453Z 3015/0112 04006KT P6SM OVC090
     FM301700 07006KT 5SM -SHRA OVC019
     FM302100 05004KT 5SM SHRA OVC010
     FM010000 12005KT 5SM SHRA VCTS OVC019CB
     FM010900 18005KT P6SM -SHRA OVC030=

USA.gov is the U.S. government's official web portal to all federal, state and local government web resources and services.